sensor_id;sensor_type;location;lat;lon;timestamp;P1;durP1;ratioP1;P2;durP2;ratioP2
32094;SDS011;18608;53.688;10.748;2023-04-03T00:01:03;3.63;;;1.83;;
32094;SDS011;18608;53.688;10.748;2023-04-03T00:03:29;2.87;;;1.30;;
32094;SDS011;18608;53.688;10.748;2023-04-03T00:05:55;4.60;;;1.80;;
32094;SDS011;18608;53.688;10.748;2023-04-03T00:08:21;5.40;;;1.73;;
32094;SDS011;18608;53.688;10.748;2023-04-03T00:10:47;5.00;;;2.53;;
32094;SDS011;18608;53.688;10.748;2023-04-03T00:13:12;4.10;;;2.00;;
32094;SDS011;18608;53.688;10.748;2023-04-03T00:15:38;5.63;;;1.70;;
32094;SDS011;18608;53.688;10.748;2023-04-03T00:18:04;2.60;;;1.63;;
32094;SDS011;18608;53.688;10.748;2023-04-03T00:20:30;3.37;;;1.50;;
32094;SDS011;18608;53.688;10.748;2023-04-03T00:22:57;5.10;;;2.10;;
32094;SDS011;18608;53.688;10.748;2023-04-03T00:25:23;1.60;;;1.43;;
32094;SDS011;18608;53.688;10.748;2023-04-03T00:27:48;4.03;;;1.70;;
32094;SDS011;18608;53.688;10.748;2023-04-03T00:30:15;3.77;;;1.80;;
32094;SDS011;18608;53.688;10.748;2023-04-03T00:32:43;2.50;;;1.60;;
32094;SDS011;18608;53.688;10.748;2023-04-03T00:35:09;2.30;;;1.33;;
32094;SDS011;18608;53.688;10.748;2023-04-03T00:37:35;4.23;;;1.50;;
32094;SDS011;18608;53.688;10.748;2023-04-03T00:40:00;4.80;;;1.70;;
32094;SDS011;18608;53.688;10.748;2023-04-03T00:42:27;8.10;;;1.50;;
32094;SDS011;18608;53.688;10.748;2023-04-03T00:47:38;2.90;;;1.17;;
32094;SDS011;18608;53.688;10.748;2023-04-03T00:50:06;4.23;;;1.70;;
32094;SDS011;18608;53.688;10.748;2023-04-03T00:52:32;4.17;;;2.03;;
32094;SDS011;18608;53.688;10.748;2023-04-03T00:54:59;1.60;;;1.50;;
32094;SDS011;18608;53.688;10.748;2023-04-03T00:57:29;3.50;;;1.60;;
32094;SDS011;18608;53.688;10.748;2023-04-03T00:59:57;1.70;;;1.60;;
32094;SDS011;18608;53.688;10.748;2023-04-03T01:02:29;4.00;;;1.90;;
32094;SDS011;18608;53.688;10.748;2023-04-03T01:04:55;1.40;;;1.30;;
32094;SDS011;18608;53.688;10.748;2023-04-03T01:07:21;2.63;;;1.50;;
32094;SDS011;18608;53.688;10.748;2023-04-03T01:09:52;1.80;;;1.57;;
32094;SDS011;18608;53.688;10.748;2023-04-03T01:12:22;11.00;;;1.70;;
32094;SDS011;18608;53.688;10.748;2023-04-03T01:14:51;2.57;;;1.13;;
32094;SDS011;18608;53.688;10.748;2023-04-03T01:17:29;5.53;;;1.80;;
32094;SDS011;18608;53.688;10.748;2023-04-03T01:25:47;2.67;;;1.60;;
32094;SDS011;18608;53.688;10.748;2023-04-03T01:28:19;3.00;;;1.80;;
32094;SDS011;18608;53.688;10.748;2023-04-03T01:33:25;3.50;;;2.40;;
32094;SDS011;18608;53.688;10.748;2023-04-03T01:35:51;2.70;;;1.37;;
32094;SDS011;18608;53.688;10.748;2023-04-03T01:38:17;5.83;;;1.60;;
32094;SDS011;18608;53.688;10.748;2023-04-03T01:40:42;5.90;;;1.20;;
32094;SDS011;18608;53.688;10.748;2023-04-03T01:43:08;10.23;;;1.73;;
32094;SDS011;18608;53.688;10.748;2023-04-03T01:45:34;6.40;;;2.87;;
32094;SDS011;18608;53.688;10.748;2023-04-03T01:48:00;2.30;;;1.40;;
32094;SDS011;18608;53.688;10.748;2023-04-03T01:50:25;1.73;;;1.40;;
32094;SDS011;18608;53.688;10.748;2023-04-03T01:52:51;1.90;;;1.60;;
32094;SDS011;18608;53.688;10.748;2023-04-03T01:55:17;4.77;;;1.83;;
32094;SDS011;18608;53.688;10.748;2023-04-03T01:57:42;1.20;;;1.20;;
32094;SDS011;18608;53.688;10.748;2023-04-03T02:00:08;2.77;;;1.50;;
32094;SDS011;18608;53.688;10.748;2023-04-03T02:02:34;4.83;;;1.30;;
32094;SDS011;18608;53.688;10.748;2023-04-03T02:05:00;2.77;;;2.57;;
32094;SDS011;18608;53.688;10.748;2023-04-03T02:07:26;1.83;;;1.30;;
32094;SDS011;18608;53.688;10.748;2023-04-03T02:09:52;2.53;;;1.13;;
32094;SDS011;18608;53.688;10.748;2023-04-03T02:12:17;3.77;;;1.70;;
32094;SDS011;18608;53.688;10.748;2023-04-03T02:14:43;3.10;;;1.20;;
32094;SDS011;18608;53.688;10.748;2023-04-03T02:17:09;1.47;;;1.37;;
32094;SDS011;18608;53.688;10.748;2023-04-03T02:19:35;2.63;;;1.30;;
32094;SDS011;18608;53.688;10.748;2023-04-03T02:22:01;3.07;;;2.50;;
32094;SDS011;18608;53.688;10.748;2023-04-03T02:24:27;4.43;;;1.63;;
32094;SDS011;18608;53.688;10.748;2023-04-03T02:26:53;4.17;;;1.63;;
32094;SDS011;18608;53.688;10.748;2023-04-03T02:29:19;4.03;;;1.73;;
32094;SDS011;18608;53.688;10.748;2023-04-03T02:31:45;1.83;;;1.20;;
32094;SDS011;18608;53.688;10.748;2023-04-03T02:34:10;3.87;;;1.80;;
32094;SDS011;18608;53.688;10.748;2023-04-03T02:36:36;4.53;;;1.23;;
32094;SDS011;18608;53.688;10.748;2023-04-03T02:39:02;6.90;;;1.90;;
32094;SDS011;18608;53.688;10.748;2023-04-03T02:41:28;2.30;;;1.37;;
32094;SDS011;18608;53.688;10.748;2023-04-03T02:43:59;4.93;;;1.63;;
32094;SDS011;18608;53.688;10.748;2023-04-03T02:46:29;10.00;;;1.67;;
32094;SDS011;18608;53.688;10.748;2023-04-03T02:48:55;4.20;;;2.00;;
32094;SDS011;18608;53.688;10.748;2023-04-03T02:51:21;1.17;;;1.07;;
32094;SDS011;18608;53.688;10.748;2023-04-03T02:53:48;3.80;;;2.10;;
32094;SDS011;18608;53.688;10.748;2023-04-03T02:56:14;1.50;;;1.40;;
32094;SDS011;18608;53.688;10.748;2023-04-03T02:58:40;1.30;;;1.10;;
32094;SDS011;18608;53.688;10.748;2023-04-03T03:01:05;5.07;;;1.07;;
32094;SDS011;18608;53.688;10.748;2023-04-03T03:03:31;4.07;;;1.40;;
32094;SDS011;18608;53.688;10.748;2023-04-03T03:06:04;9.00;;;1.70;;
32094;SDS011;18608;53.688;10.748;2023-04-03T03:08:32;7.33;;;1.93;;
32094;SDS011;18608;53.688;10.748;2023-04-03T03:10:58;3.07;;;1.73;;
32094;SDS011;18608;53.688;10.748;2023-04-03T03:13:23;3.63;;;1.70;;
32094;SDS011;18608;53.688;10.748;2023-04-03T03:15:49;3.60;;;1.53;;
32094;SDS011;18608;53.688;10.748;2023-04-03T03:18:15;6.90;;;1.50;;
32094;SDS011;18608;53.688;10.748;2023-04-03T03:20:41;3.77;;;1.30;;
32094;SDS011;18608;53.688;10.748;2023-04-03T03:23:07;6.77;;;1.33;;
32094;SDS011;18608;53.688;10.748;2023-04-03T03:25:33;3.70;;;2.30;;
32094;SDS011;18608;53.688;10.748;2023-04-03T03:27:58;3.37;;;1.60;;
32094;SDS011;18608;53.688;10.748;2023-04-03T03:30:24;3.03;;;1.63;;
32094;SDS011;18608;53.688;10.748;2023-04-03T03:32:50;4.47;;;1.80;;
32094;SDS011;18608;53.688;10.748;2023-04-03T03:35:15;7.63;;;2.03;;
32094;SDS011;18608;53.688;10.748;2023-04-03T03:37:41;10.73;;;2.20;;
32094;SDS011;18608;53.688;10.748;2023-04-03T03:40:07;2.20;;;2.00;;
32094;SDS011;18608;53.688;10.748;2023-04-03T03:42:33;6.50;;;2.07;;
32094;SDS011;18608;53.688;10.748;2023-04-03T03:44:58;4.10;;;1.53;;
32094;SDS011;18608;53.688;10.748;2023-04-03T03:47:24;2.77;;;2.40;;
32094;SDS011;18608;53.688;10.748;2023-04-03T03:49:50;2.30;;;2.20;;
32094;SDS011;18608;53.688;10.748;2023-04-03T03:52:16;4.17;;;3.37;;
32094;SDS011;18608;53.688;10.748;2023-04-03T03:54:41;4.07;;;2.73;;
32094;SDS011;18608;53.688;10.748;2023-04-03T03:57:07;6.07;;;3.13;;
32094;SDS011;18608;53.688;10.748;2023-04-03T03:59:32;2.57;;;1.90;;
32094;SDS011;18608;53.688;10.748;2023-04-03T04:01:58;4.67;;;2.70;;
32094;SDS011;18608;53.688;10.748;2023-04-03T04:04:24;4.17;;;3.00;;
32094;SDS011;18608;53.688;10.748;2023-04-03T04:06:50;3.33;;;2.80;;
32094;SDS011;18608;53.688;10.748;2023-04-03T04:09:16;4.27;;;3.13;;
32094;SDS011;18608;53.688;10.748;2023-04-03T04:11:43;2.77;;;1.60;;
32094;SDS011;18608;53.688;10.748;2023-04-03T04:14:10;1.77;;;1.67;;
32094;SDS011;18608;53.688;10.748;2023-04-03T04:16:37;5.03;;;2.37;;
32094;SDS011;18608;53.688;10.748;2023-04-03T04:19:03;5.97;;;3.37;;
32094;SDS011;18608;53.688;10.748;2023-04-03T04:21:28;3.53;;;3.23;;
32094;SDS011;18608;53.688;10.748;2023-04-03T04:23:54;3.03;;;2.73;;
32094;SDS011;18608;53.688;10.748;2023-04-03T04:26:20;2.73;;;2.33;;
32094;SDS011;18608;53.688;10.748;2023-04-03T04:28:46;1.73;;;1.60;;
32094;SDS011;18608;53.688;10.748;2023-04-03T04:31:11;2.00;;;1.90;;
32094;SDS011;18608;53.688;10.748;2023-04-03T04:33:37;3.10;;;2.40;;
32094;SDS011;18608;53.688;10.748;2023-04-03T04:36:03;2.47;;;2.10;;
32094;SDS011;18608;53.688;10.748;2023-04-03T04:38:28;2.23;;;2.13;;
32094;SDS011;18608;53.688;10.748;2023-04-03T04:40:54;2.43;;;2.17;;
32094;SDS011;18608;53.688;10.748;2023-04-03T04:43:20;9.20;;;2.33;;
32094;SDS011;18608;53.688;10.748;2023-04-03T04:45:46;2.70;;;1.80;;
32094;SDS011;18608;53.688;10.748;2023-04-03T04:48:11;3.83;;;1.57;;
32094;SDS011;18608;53.688;10.748;2023-04-03T04:50:37;4.87;;;2.30;;
32094;SDS011;18608;53.688;10.748;2023-04-03T04:53:03;3.53;;;2.40;;
32094;SDS011;18608;53.688;10.748;2023-04-03T04:55:29;2.60;;;2.30;;
32094;SDS011;18608;53.688;10.748;2023-04-03T04:57:55;16.53;;;2.40;;
32094;SDS011;18608;53.688;10.748;2023-04-03T05:00:20;4.13;;;2.90;;
32094;SDS011;18608;53.688;10.748;2023-04-03T05:02:46;2.80;;;2.33;;
32094;SDS011;18608;53.688;10.748;2023-04-03T05:05:12;4.00;;;2.17;;
32094;SDS011;18608;53.688;10.748;2023-04-03T05:07:38;5.27;;;2.27;;
32094;SDS011;18608;53.688;10.748;2023-04-03T05:10:03;1.77;;;1.67;;
32094;SDS011;18608;53.688;10.748;2023-04-03T05:12:30;5.00;;;2.57;;
32094;SDS011;18608;53.688;10.748;2023-04-03T05:14:57;2.43;;;1.53;;
32094;SDS011;18608;53.688;10.748;2023-04-03T05:17:22;7.70;;;4.00;;
32094;SDS011;18608;53.688;10.748;2023-04-03T05:19:48;5.27;;;2.70;;
32094;SDS011;18608;53.688;10.748;2023-04-03T05:22:13;4.67;;;3.60;;
32094;SDS011;18608;53.688;10.748;2023-04-03T05:24:40;3.93;;;3.40;;
32094;SDS011;18608;53.688;10.748;2023-04-03T05:27:05;5.67;;;3.30;;
32094;SDS011;18608;53.688;10.748;2023-04-03T05:29:31;18.63;;;3.40;;
32094;SDS011;18608;53.688;10.748;2023-04-03T05:31:56;10.30;;;4.10;;
32094;SDS011;18608;53.688;10.748;2023-04-03T05:34:22;4.53;;;3.97;;
32094;SDS011;18608;53.688;10.748;2023-04-03T05:36:48;5.83;;;3.37;;
32094;SDS011;18608;53.688;10.748;2023-04-03T05:39:13;10.03;;;3.00;;
32094;SDS011;18608;53.688;10.748;2023-04-03T05:41:39;5.60;;;4.00;;
32094;SDS011;18608;53.688;10.748;2023-04-03T05:44:05;3.33;;;2.90;;
32094;SDS011;18608;53.688;10.748;2023-04-03T05:46:31;4.87;;;3.40;;
32094;SDS011;18608;53.688;10.748;2023-04-03T05:48:56;4.37;;;3.80;;
32094;SDS011;18608;53.688;10.748;2023-04-03T05:51:23;4.90;;;3.10;;
32094;SDS011;18608;53.688;10.748;2023-04-03T05:53:55;10.83;;;3.37;;
32094;SDS011;18608;53.688;10.748;2023-04-03T05:56:25;2.93;;;2.73;;
32094;SDS011;18608;53.688;10.748;2023-04-03T05:58:51;5.03;;;2.50;;
32094;SDS011;18608;53.688;10.748;2023-04-03T06:01:17;7.90;;;3.13;;
32094;SDS011;18608;53.688;10.748;2023-04-03T06:03:42;8.27;;;3.47;;
32094;SDS011;18608;53.688;10.748;2023-04-03T06:06:10;3.17;;;2.03;;
32094;SDS011;18608;53.688;10.748;2023-04-03T06:08:38;4.90;;;3.20;;
32094;SDS011;18608;53.688;10.748;2023-04-03T06:11:04;2.40;;;2.20;;
32094;SDS011;18608;53.688;10.748;2023-04-03T06:13:30;6.00;;;3.30;;
32094;SDS011;18608;53.688;10.748;2023-04-03T06:15:56;6.00;;;2.30;;
32094;SDS011;18608;53.688;10.748;2023-04-03T06:18:22;4.10;;;2.80;;
32094;SDS011;18608;53.688;10.748;2023-04-03T06:20:48;3.10;;;2.90;;
32094;SDS011;18608;53.688;10.748;2023-04-03T06:23:13;13.97;;;4.63;;
32094;SDS011;18608;53.688;10.748;2023-04-03T06:25:39;8.53;;;3.30;;
32094;SDS011;18608;53.688;10.748;2023-04-03T06:28:05;3.80;;;2.20;;
32094;SDS011;18608;53.688;10.748;2023-04-03T06:30:34;2.40;;;1.87;;
32094;SDS011;18608;53.688;10.748;2023-04-03T06:33:00;2.47;;;1.47;;
32094;SDS011;18608;53.688;10.748;2023-04-03T06:35:25;1.47;;;1.20;;
32094;SDS011;18608;53.688;10.748;2023-04-03T06:37:53;2.93;;;1.60;;
32094;SDS011;18608;53.688;10.748;2023-04-03T06:40:19;4.60;;;1.83;;
32094;SDS011;18608;53.688;10.748;2023-04-03T06:42:47;3.63;;;1.20;;
32094;SDS011;18608;53.688;10.748;2023-04-03T06:45:14;6.30;;;1.50;;
32094;SDS011;18608;53.688;10.748;2023-04-03T06:47:40;1.53;;;1.43;;
32094;SDS011;18608;53.688;10.748;2023-04-03T06:50:10;5.60;;;1.63;;
32094;SDS011;18608;53.688;10.748;2023-04-03T06:52:38;2.80;;;1.60;;
32094;SDS011;18608;53.688;10.748;2023-04-03T06:55:05;4.73;;;1.70;;
32094;SDS011;18608;53.688;10.748;2023-04-03T06:57:31;6.27;;;1.50;;
32094;SDS011;18608;53.688;10.748;2023-04-03T06:59:57;3.43;;;1.80;;
32094;SDS011;18608;53.688;10.748;2023-04-03T07:02:22;1.90;;;1.50;;
32094;SDS011;18608;53.688;10.748;2023-04-03T07:04:48;2.03;;;1.43;;
32094;SDS011;18608;53.688;10.748;2023-04-03T07:07:14;2.50;;;1.80;;
32094;SDS011;18608;53.688;10.748;2023-04-03T07:09:40;1.60;;;1.37;;
32094;SDS011;18608;53.688;10.748;2023-04-03T07:12:07;2.60;;;1.43;;
32094;SDS011;18608;53.688;10.748;2023-04-03T07:14:32;2.73;;;1.33;;
32094;SDS011;18608;53.688;10.748;2023-04-03T07:16:58;1.77;;;1.67;;
32094;SDS011;18608;53.688;10.748;2023-04-03T07:19:24;3.57;;;1.57;;
32094;SDS011;18608;53.688;10.748;2023-04-03T07:21:52;0.70;;;0.70;;
32094;SDS011;18608;53.688;10.748;2023-04-03T07:24:18;6.27;;;1.60;;
32094;SDS011;18608;53.688;10.748;2023-04-03T07:26:44;1.83;;;1.20;;
32094;SDS011;18608;53.688;10.748;2023-04-03T07:29:13;4.23;;;1.70;;
32094;SDS011;18608;53.688;10.748;2023-04-03T07:31:39;2.23;;;0.87;;
32094;SDS011;18608;53.688;10.748;2023-04-03T07:34:06;6.80;;;1.47;;
32094;SDS011;18608;53.688;10.748;2023-04-03T07:36:32;3.80;;;1.60;;
32094;SDS011;18608;53.688;10.748;2023-04-03T07:38:58;2.00;;;1.20;;
32094;SDS011;18608;53.688;10.748;2023-04-03T07:41:24;3.30;;;1.63;;
32094;SDS011;18608;53.688;10.748;2023-04-03T07:43:49;3.70;;;1.30;;
32094;SDS011;18608;53.688;10.748;2023-04-03T07:46:15;3.63;;;1.30;;
32094;SDS011;18608;53.688;10.748;2023-04-03T07:48:42;1.63;;;1.30;;
32094;SDS011;18608;53.688;10.748;2023-04-03T07:51:09;5.07;;;1.87;;
32094;SDS011;18608;53.688;10.748;2023-04-03T07:53:35;5.30;;;1.20;;
32094;SDS011;18608;53.688;10.748;2023-04-03T07:56:01;1.37;;;1.23;;
32094;SDS011;18608;53.688;10.748;2023-04-03T07:58:27;5.60;;;1.63;;
32094;SDS011;18608;53.688;10.748;2023-04-03T08:00:54;1.97;;;1.77;;
32094;SDS011;18608;53.688;10.748;2023-04-03T08:03:19;9.40;;;1.40;;
32094;SDS011;18608;53.688;10.748;2023-04-03T08:05:46;2.47;;;1.40;;
32094;SDS011;18608;53.688;10.748;2023-04-03T08:08:15;1.93;;;1.37;;
32094;SDS011;18608;53.688;10.748;2023-04-03T08:10:42;2.87;;;1.70;;
32094;SDS011;18608;53.688;10.748;2023-04-03T08:13:08;5.40;;;1.80;;
32094;SDS011;18608;53.688;10.748;2023-04-03T08:15:34;5.83;;;1.57;;
32094;SDS011;18608;53.688;10.748;2023-04-03T08:18:01;1.33;;;1.10;;
32094;SDS011;18608;53.688;10.748;2023-04-03T08:20:27;11.47;;;1.47;;
32094;SDS011;18608;53.688;10.748;2023-04-03T08:22:53;2.80;;;1.70;;
32094;SDS011;18608;53.688;10.748;2023-04-03T08:25:19;1.90;;;1.50;;
32094;SDS011;18608;53.688;10.748;2023-04-03T08:27:45;3.00;;;1.50;;
32094;SDS011;18608;53.688;10.748;2023-04-03T08:30:11;5.60;;;1.60;;
32094;SDS011;18608;53.688;10.748;2023-04-03T08:32:37;8.67;;;1.40;;
32094;SDS011;18608;53.688;10.748;2023-04-03T08:35:03;2.40;;;1.60;;
32094;SDS011;18608;53.688;10.748;2023-04-03T08:37:30;6.10;;;2.00;;
32094;SDS011;18608;53.688;10.748;2023-04-03T08:39:55;5.73;;;1.80;;
32094;SDS011;18608;53.688;10.748;2023-04-03T08:45:12;1.97;;;1.57;;
32094;SDS011;18608;53.688;10.748;2023-04-03T08:50:20;2.30;;;1.83;;
32094;SDS011;18608;53.688;10.748;2023-04-03T08:52:58;2.67;;;1.60;;
32094;SDS011;18608;53.688;10.748;2023-04-03T08:55:27;5.03;;;1.67;;
32094;SDS011;18608;53.688;10.748;2023-04-03T08:58:03;1.70;;;1.60;;
32094;SDS011;18608;53.688;10.748;2023-04-03T09:00:37;2.43;;;1.70;;
32094;SDS011;18608;53.688;10.748;2023-04-03T09:03:14;2.60;;;1.23;;
32094;SDS011;18608;53.688;10.748;2023-04-03T09:05:44;3.60;;;2.17;;
32094;SDS011;18608;53.688;10.748;2023-04-03T09:08:42;1.73;;;1.20;;
32094;SDS011;18608;53.688;10.748;2023-04-03T09:11:23;4.00;;;1.60;;
32094;SDS011;18608;53.688;10.748;2023-04-03T09:14:14;3.67;;;1.43;;
32094;SDS011;18608;53.688;10.748;2023-04-03T09:22:02;5.53;;;1.30;;
32094;SDS011;18608;53.688;10.748;2023-04-03T09:24:28;2.63;;;1.30;;
32094;SDS011;18608;53.688;10.748;2023-04-03T09:26:58;3.90;;;1.67;;
32094;SDS011;18608;53.688;10.748;2023-04-03T09:29:29;1.27;;;1.20;;
32094;SDS011;18608;53.688;10.748;2023-04-03T09:32:02;8.13;;;1.30;;
32094;SDS011;18608;53.688;10.748;2023-04-03T09:34:56;2.00;;;1.23;;
32094;SDS011;18608;53.688;10.748;2023-04-03T09:37:44;1.40;;;1.10;;
32094;SDS011;18608;53.688;10.748;2023-04-03T09:43:02;2.50;;;2.33;;
32094;SDS011;18608;53.688;10.748;2023-04-03T09:45:45;6.37;;;1.33;;
32094;SDS011;18608;53.688;10.748;2023-04-03T09:50:38;1.20;;;1.10;;
32094;SDS011;18608;53.688;10.748;2023-04-03T09:58:42;3.27;;;1.37;;
32094;SDS011;18608;53.688;10.748;2023-04-03T10:01:33;2.13;;;1.30;;
32094;SDS011;18608;53.688;10.748;2023-04-03T10:04:05;0.83;;;0.77;;
32094;SDS011;18608;53.688;10.748;2023-04-03T10:06:32;3.43;;;0.90;;
32094;SDS011;18608;53.688;10.748;2023-04-03T10:09:05;1.03;;;0.70;;
32094;SDS011;18608;53.688;10.748;2023-04-03T10:14:41;4.20;;;0.90;;
32094;SDS011;18608;53.688;10.748;2023-04-03T10:19:58;2.80;;;0.80;;
32094;SDS011;18608;53.688;10.748;2023-04-03T10:28:30;2.87;;;0.83;;
32094;SDS011;18608;53.688;10.748;2023-04-03T10:31:25;9.47;;;0.80;;
32094;SDS011;18608;53.688;10.748;2023-04-03T10:42:02;1.03;;;1.00;;
32094;SDS011;18608;53.688;10.748;2023-04-03T10:50:51;1.53;;;1.43;;
32094;SDS011;18608;53.688;10.748;2023-04-03T10:58:39;1.40;;;0.80;;
32094;SDS011;18608;53.688;10.748;2023-04-03T11:01:09;1.80;;;0.90;;
32094;SDS011;18608;53.688;10.748;2023-04-03T11:03:40;1.57;;;1.30;;
32094;SDS011;18608;53.688;10.748;2023-04-03T11:06:10;4.03;;;0.90;;
32094;SDS011;18608;53.688;10.748;2023-04-03T11:08:51;0.87;;;0.87;;
32094;SDS011;18608;53.688;10.748;2023-04-03T11:11:35;1.50;;;0.90;;
32094;SDS011;18608;53.688;10.748;2023-04-03T11:14:05;1.00;;;0.87;;
32094;SDS011;18608;53.688;10.748;2023-04-03T11:16:36;0.70;;;0.70;;
32094;SDS011;18608;53.688;10.748;2023-04-03T11:19:20;1.13;;;0.90;;
32094;SDS011;18608;53.688;10.748;2023-04-03T11:21:54;5.93;;;1.17;;
32094;SDS011;18608;53.688;10.748;2023-04-03T11:24:36;2.20;;;1.30;;
32094;SDS011;18608;53.688;10.748;2023-04-03T11:27:05;5.67;;;1.20;;
32094;SDS011;18608;53.688;10.748;2023-04-03T11:29:36;2.50;;;0.90;;
32094;SDS011;18608;53.688;10.748;2023-04-03T11:35:12;0.97;;;0.80;;
32094;SDS011;18608;53.688;10.748;2023-04-03T11:37:40;3.13;;;0.80;;
32094;SDS011;18608;53.688;10.748;2023-04-03T11:42:41;2.10;;;1.40;;
32094;SDS011;18608;53.688;10.748;2023-04-03T11:47:52;0.70;;;0.70;;
32094;SDS011;18608;53.688;10.748;2023-04-03T11:50:50;0.80;;;0.67;;
32094;SDS011;18608;53.688;10.748;2023-04-03T11:58:17;2.50;;;1.10;;
32094;SDS011;18608;53.688;10.748;2023-04-03T12:00:59;2.83;;;0.80;;
32094;SDS011;18608;53.688;10.748;2023-04-03T12:08:52;1.37;;;1.03;;
32094;SDS011;18608;53.688;10.748;2023-04-03T12:11:39;3.03;;;0.80;;
32094;SDS011;18608;53.688;10.748;2023-04-03T12:14:12;7.23;;;1.83;;
32094;SDS011;18608;53.688;10.748;2023-04-03T12:32:22;7.23;;;0.93;;
32094;SDS011;18608;53.688;10.748;2023-04-03T12:35:20;1.27;;;1.00;;
32094;SDS011;18608;53.688;10.748;2023-04-03T12:43:50;0.87;;;0.87;;
32094;SDS011;18608;53.688;10.748;2023-04-03T12:46:42;6.77;;;1.90;;
32094;SDS011;18608;53.688;10.748;2023-04-03T12:49:52;0.97;;;0.93;;
32094;SDS011;18608;53.688;10.748;2023-04-03T12:52:03;1.77;;;1.10;;
32094;SDS011;18608;53.688;10.748;2023-04-03T12:54:41;4.70;;;1.53;;
32094;SDS011;18608;53.688;10.748;2023-04-03T12:57:10;3.87;;;1.33;;
32094;SDS011;18608;53.688;10.748;2023-04-03T12:59:36;2.37;;;0.90;;
32094;SDS011;18608;53.688;10.748;2023-04-03T13:02:03;2.30;;;0.83;;
32094;SDS011;18608;53.688;10.748;2023-04-03T13:04:42;1.87;;;1.10;;
32094;SDS011;18608;53.688;10.748;2023-04-03T13:07:18;1.13;;;1.03;;
32094;SDS011;18608;53.688;10.748;2023-04-03T13:12:32;5.00;;;1.00;;
32094;SDS011;18608;53.688;10.748;2023-04-03T13:17:44;4.70;;;1.10;;
32094;SDS011;18608;53.688;10.748;2023-04-03T13:20:29;2.47;;;1.83;;
32094;SDS011;18608;53.688;10.748;2023-04-03T13:23:05;1.10;;;0.87;;
32094;SDS011;18608;53.688;10.748;2023-04-03T13:25:34;0.93;;;0.93;;
32094;SDS011;18608;53.688;10.748;2023-04-03T13:28:05;1.87;;;1.03;;
32094;SDS011;18608;53.688;10.748;2023-04-03T13:30:36;1.10;;;0.97;;
32094;SDS011;18608;53.688;10.748;2023-04-03T13:33:04;2.53;;;1.10;;
32094;SDS011;18608;53.688;10.748;2023-04-03T13:35:43;0.90;;;0.80;;
32094;SDS011;18608;53.688;10.748;2023-04-03T13:40:51;0.93;;;0.93;;
32094;SDS011;18608;53.688;10.748;2023-04-03T13:43:25;0.80;;;0.77;;
32094;SDS011;18608;53.688;10.748;2023-04-03T13:46:20;0.70;;;0.70;;
32094;SDS011;18608;53.688;10.748;2023-04-03T13:48:50;6.83;;;1.03;;
32094;SDS011;18608;53.688;10.748;2023-04-03T13:51:37;5.70;;;1.57;;
32094;SDS011;18608;53.688;10.748;2023-04-03T13:54:16;5.50;;;1.17;;
32094;SDS011;18608;53.688;10.748;2023-04-03T13:56:47;0.83;;;0.83;;
32094;SDS011;18608;53.688;10.748;2023-04-03T13:59:25;1.53;;;0.97;;
32094;SDS011;18608;53.688;10.748;2023-04-03T14:07:09;2.30;;;1.07;;
32094;SDS011;18608;53.688;10.748;2023-04-03T14:09:36;2.03;;;1.80;;
32094;SDS011;18608;53.688;10.748;2023-04-03T14:12:04;4.83;;;1.67;;
32094;SDS011;18608;53.688;10.748;2023-04-03T14:14:33;2.07;;;1.10;;
32094;SDS011;18608;53.688;10.748;2023-04-03T14:17:03;0.80;;;0.80;;
32094;SDS011;18608;53.688;10.748;2023-04-03T14:19:37;5.60;;;2.93;;
32094;SDS011;18608;53.688;10.748;2023-04-03T14:22:10;7.47;;;1.60;;
32094;SDS011;18608;53.688;10.748;2023-04-03T14:24:42;1.70;;;1.00;;
32094;SDS011;18608;53.688;10.748;2023-04-03T14:29:46;9.00;;;1.50;;
32094;SDS011;18608;53.688;10.748;2023-04-03T14:32:13;2.50;;;1.20;;
32094;SDS011;18608;53.688;10.748;2023-04-03T14:34:41;1.30;;;1.20;;
32094;SDS011;18608;53.688;10.748;2023-04-03T14:37:14;0.97;;;0.93;;
32094;SDS011;18608;53.688;10.748;2023-04-03T14:39:42;2.30;;;1.10;;
32094;SDS011;18608;53.688;10.748;2023-04-03T14:42:14;1.10;;;1.00;;
32094;SDS011;18608;53.688;10.748;2023-04-03T14:44:41;2.93;;;1.30;;
32094;SDS011;18608;53.688;10.748;2023-04-03T14:47:11;0.97;;;0.97;;
32094;SDS011;18608;53.688;10.748;2023-04-03T14:49:38;2.47;;;1.40;;
32094;SDS011;18608;53.688;10.748;2023-04-03T14:52:04;3.70;;;1.30;;
32094;SDS011;18608;53.688;10.748;2023-04-03T14:54:30;23.80;;;1.63;;
32094;SDS011;18608;53.688;10.748;2023-04-03T14:56:56;2.37;;;1.03;;
32094;SDS011;18608;53.688;10.748;2023-04-03T14:59:23;1.60;;;1.07;;
32094;SDS011;18608;53.688;10.748;2023-04-03T15:01:50;5.97;;;0.80;;
32094;SDS011;18608;53.688;10.748;2023-04-03T15:04:16;0.90;;;0.90;;
32094;SDS011;18608;53.688;10.748;2023-04-03T15:06:47;3.23;;;1.30;;
32094;SDS011;18608;53.688;10.748;2023-04-03T15:09:18;1.03;;;0.93;;
32094;SDS011;18608;53.688;10.748;2023-04-03T15:11:49;2.50;;;1.60;;
32094;SDS011;18608;53.688;10.748;2023-04-03T15:14:16;2.80;;;0.77;;
32094;SDS011;18608;53.688;10.748;2023-04-03T15:16:42;1.90;;;1.27;;
32094;SDS011;18608;53.688;10.748;2023-04-03T15:19:08;1.57;;;1.20;;
32094;SDS011;18608;53.688;10.748;2023-04-03T15:21:35;2.70;;;1.37;;
32094;SDS011;18608;53.688;10.748;2023-04-03T15:24:01;5.80;;;1.60;;
32094;SDS011;18608;53.688;10.748;2023-04-03T15:26:26;7.83;;;1.53;;
32094;SDS011;18608;53.688;10.748;2023-04-03T15:28:52;0.93;;;0.87;;
32094;SDS011;18608;53.688;10.748;2023-04-03T15:31:18;1.03;;;0.70;;
32094;SDS011;18608;53.688;10.748;2023-04-03T15:33:44;4.00;;;1.10;;
32094;SDS011;18608;53.688;10.748;2023-04-03T15:36:09;1.73;;;1.57;;
32094;SDS011;18608;53.688;10.748;2023-04-03T15:38:35;6.43;;;1.37;;
32094;SDS011;18608;53.688;10.748;2023-04-03T15:41:03;1.43;;;1.10;;
32094;SDS011;18608;53.688;10.748;2023-04-03T15:43:29;2.00;;;1.87;;
32094;SDS011;18608;53.688;10.748;2023-04-03T15:45:58;2.90;;;1.00;;
32094;SDS011;18608;53.688;10.748;2023-04-03T15:48:25;1.53;;;1.43;;
32094;SDS011;18608;53.688;10.748;2023-04-03T15:50:51;3.50;;;1.27;;
32094;SDS011;18608;53.688;10.748;2023-04-03T15:53:17;10.10;;;1.50;;
32094;SDS011;18608;53.688;10.748;2023-04-03T15:55:43;1.70;;;1.33;;
32094;SDS011;18608;53.688;10.748;2023-04-03T15:58:09;1.67;;;1.10;;
32094;SDS011;18608;53.688;10.748;2023-04-03T16:00:35;2.40;;;1.20;;
32094;SDS011;18608;53.688;10.748;2023-04-03T16:03:05;2.13;;;1.43;;
32094;SDS011;18608;53.688;10.748;2023-04-03T16:05:36;4.20;;;1.00;;
32094;SDS011;18608;53.688;10.748;2023-04-03T16:08:03;5.13;;;1.87;;
32094;SDS011;18608;53.688;10.748;2023-04-03T16:10:30;2.93;;;1.23;;
32094;SDS011;18608;53.688;10.748;2023-04-03T16:12:56;2.23;;;1.37;;
32094;SDS011;18608;53.688;10.748;2023-04-03T16:15:22;0.87;;;0.87;;
32094;SDS011;18608;53.688;10.748;2023-04-03T16:17:49;2.67;;;1.10;;
32094;SDS011;18608;53.688;10.748;2023-04-03T16:20:15;4.80;;;1.10;;
32094;SDS011;18608;53.688;10.748;2023-04-03T16:22:41;2.30;;;1.40;;
32094;SDS011;18608;53.688;10.748;2023-04-03T16:25:08;1.87;;;1.27;;
32094;SDS011;18608;53.688;10.748;2023-04-03T16:27:34;3.07;;;1.50;;
32094;SDS011;18608;53.688;10.748;2023-04-03T16:30:00;2.10;;;1.00;;
32094;SDS011;18608;53.688;10.748;2023-04-03T16:32:27;3.47;;;1.47;;
32094;SDS011;18608;53.688;10.748;2023-04-03T16:34:55;1.70;;;1.60;;
32094;SDS011;18608;53.688;10.748;2023-04-03T16:37:21;1.33;;;1.20;;
32094;SDS011;18608;53.688;10.748;2023-04-03T16:39:46;2.70;;;1.40;;
32094;SDS011;18608;53.688;10.748;2023-04-03T16:42:12;1.63;;;1.20;;